sensor_id;sensor_type;location;lat;lon;timestamp;P1;durP1;ratioP1;P2;durP2;ratioP2
34741;SDS011;20968;42.696;23.360;2023-05-07T00:01:02;11.45;;;6.85;;
34741;SDS011;20968;42.696;23.360;2023-05-07T00:03:28;8.90;;;5.47;;
34741;SDS011;20968;42.696;23.360;2023-05-07T00:05:53;8.75;;;5.97;;
34741;SDS011;20968;42.696;23.360;2023-05-07T00:08:19;9.63;;;6.55;;
34741;SDS011;20968;42.696;23.360;2023-05-07T00:10:45;11.93;;;7.43;;
34741;SDS011;20968;42.696;23.360;2023-05-07T00:13:11;9.50;;;5.90;;
34741;SDS011;20968;42.696;23.360;2023-05-07T00:15:37;11.98;;;6.00;;
34741;SDS011;20968;42.696;23.360;2023-05-07T00:18:02;12.50;;;6.88;;
34741;SDS011;20968;42.696;23.360;2023-05-07T00:20:28;10.73;;;7.00;;
34741;SDS011;20968;42.696;23.360;2023-05-07T00:22:53;13.23;;;6.70;;
34741;SDS011;20968;42.696;23.360;2023-05-07T00:25:25;10.60;;;6.68;;
34741;SDS011;20968;42.696;23.360;2023-05-07T00:27:51;11.65;;;7.03;;
34741;SDS011;20968;42.696;23.360;2023-05-07T00:30:16;12.32;;;6.80;;
34741;SDS011;20968;42.696;23.360;2023-05-07T00:32:42;9.13;;;5.85;;
34741;SDS011;20968;42.696;23.360;2023-05-07T00:35:07;10.10;;;6.32;;
34741;SDS011;20968;42.696;23.360;2023-05-07T00:37:33;8.02;;;5.68;;
34741;SDS011;20968;42.696;23.360;2023-05-07T00:39:59;9.43;;;5.60;;
34741;SDS011;20968;42.696;23.360;2023-05-07T00:42:25;10.02;;;6.00;;
34741;SDS011;20968;42.696;23.360;2023-05-07T00:44:50;11.02;;;5.93;;
34741;SDS011;20968;42.696;23.360;2023-05-07T00:47:16;10.27;;;6.28;;
34741;SDS011;20968;42.696;23.360;2023-05-07T00:49:43;8.63;;;5.47;;
34741;SDS011;20968;42.696;23.360;2023-05-07T00:52:12;9.13;;;5.28;;
34741;SDS011;20968;42.696;23.360;2023-05-07T00:54:41;8.65;;;5.78;;
34741;SDS011;20968;42.696;23.360;2023-05-07T00:57:06;8.50;;;5.97;;
34741;SDS011;20968;42.696;23.360;2023-05-07T00:59:34;11.93;;;5.95;;
34741;SDS011;20968;42.696;23.360;2023-05-07T01:02:00;8.77;;;5.28;;
34741;SDS011;20968;42.696;23.360;2023-05-07T01:04:26;8.45;;;5.40;;
34741;SDS011;20968;42.696;23.360;2023-05-07T01:06:52;13.88;;;6.95;;
34741;SDS011;20968;42.696;23.360;2023-05-07T01:09:20;10.10;;;6.78;;
34741;SDS011;20968;42.696;23.360;2023-05-07T01:11:47;10.00;;;5.93;;
34741;SDS011;20968;42.696;23.360;2023-05-07T01:14:14;7.13;;;4.85;;
34741;SDS011;20968;42.696;23.360;2023-05-07T01:16:39;5.30;;;4.22;;
34741;SDS011;20968;42.696;23.360;2023-05-07T01:19:07;9.35;;;4.90;;
34741;SDS011;20968;42.696;23.360;2023-05-07T01:21:35;15.52;;;6.70;;
34741;SDS011;20968;42.696;23.360;2023-05-07T01:24:03;16.50;;;6.88;;
34741;SDS011;20968;42.696;23.360;2023-05-07T01:26:30;9.30;;;5.95;;
34741;SDS011;20968;42.696;23.360;2023-05-07T01:28:56;13.32;;;5.82;;
34741;SDS011;20968;42.696;23.360;2023-05-07T01:31:21;5.60;;;3.90;;
34741;SDS011;20968;42.696;23.360;2023-05-07T01:33:51;6.63;;;4.57;;
34741;SDS011;20968;42.696;23.360;2023-05-07T01:36:18;8.25;;;4.43;;
34741;SDS011;20968;42.696;23.360;2023-05-07T01:38:46;8.35;;;4.75;;
34741;SDS011;20968;42.696;23.360;2023-05-07T01:41:12;8.30;;;4.88;;
34741;SDS011;20968;42.696;23.360;2023-05-07T01:43:38;9.63;;;5.38;;
34741;SDS011;20968;42.696;23.360;2023-05-07T01:46:06;8.25;;;5.22;;
34741;SDS011;20968;42.696;23.360;2023-05-07T01:48:33;9.27;;;4.32;;
34741;SDS011;20968;42.696;23.360;2023-05-07T01:50:59;10.48;;;4.80;;
34741;SDS011;20968;42.696;23.360;2023-05-07T01:53:28;19.63;;;8.35;;
34741;SDS011;20968;42.696;23.360;2023-05-07T01:56:01;9.43;;;6.35;;
34741;SDS011;20968;42.696;23.360;2023-05-07T01:58:28;9.23;;;5.72;;
34741;SDS011;20968;42.696;23.360;2023-05-07T02:00:53;8.30;;;5.32;;
34741;SDS011;20968;42.696;23.360;2023-05-07T02:03:18;7.95;;;5.70;;
34741;SDS011;20968;42.696;23.360;2023-05-07T02:05:44;9.95;;;5.25;;
34741;SDS011;20968;42.696;23.360;2023-05-07T02:08:09;7.32;;;5.85;;
34741;SDS011;20968;42.696;23.360;2023-05-07T02:10:35;14.30;;;6.25;;
34741;SDS011;20968;42.696;23.360;2023-05-07T02:13:01;13.25;;;5.95;;
34741;SDS011;20968;42.696;23.360;2023-05-07T02:15:27;17.05;;;6.35;;
34741;SDS011;20968;42.696;23.360;2023-05-07T02:17:59;10.00;;;6.32;;
34741;SDS011;20968;42.696;23.360;2023-05-07T02:20:29;13.85;;;6.43;;
34741;SDS011;20968;42.696;23.360;2023-05-07T02:22:54;12.38;;;6.80;;
34741;SDS011;20968;42.696;23.360;2023-05-07T02:25:20;13.43;;;8.23;;
34741;SDS011;20968;42.696;23.360;2023-05-07T02:27:45;14.25;;;6.88;;
34741;SDS011;20968;42.696;23.360;2023-05-07T02:30:10;9.98;;;6.05;;
34741;SDS011;20968;42.696;23.360;2023-05-07T02:32:36;10.48;;;6.88;;
34741;SDS011;20968;42.696;23.360;2023-05-07T02:35:02;11.77;;;6.55;;
34741;SDS011;20968;42.696;23.360;2023-05-07T02:37:27;9.35;;;6.72;;
34741;SDS011;20968;42.696;23.360;2023-05-07T02:39:53;9.90;;;6.30;;
34741;SDS011;20968;42.696;23.360;2023-05-07T02:42:18;11.77;;;7.40;;
34741;SDS011;20968;42.696;23.360;2023-05-07T02:44:43;13.90;;;7.43;;
34741;SDS011;20968;42.696;23.360;2023-05-07T02:47:09;10.48;;;6.75;;
34741;SDS011;20968;42.696;23.360;2023-05-07T02:49:35;12.70;;;6.82;;
34741;SDS011;20968;42.696;23.360;2023-05-07T02:52:01;17.65;;;7.95;;
34741;SDS011;20968;42.696;23.360;2023-05-07T02:54:26;12.07;;;8.02;;
34741;SDS011;20968;42.696;23.360;2023-05-07T02:56:52;19.02;;;9.38;;
34741;SDS011;20968;42.696;23.360;2023-05-07T02:59:17;14.70;;;8.75;;
34741;SDS011;20968;42.696;23.360;2023-05-07T03:01:42;13.88;;;7.50;;
34741;SDS011;20968;42.696;23.360;2023-05-07T03:04:10;9.90;;;7.40;;
34741;SDS011;20968;42.696;23.360;2023-05-07T03:06:36;16.77;;;8.00;;
34741;SDS011;20968;42.696;23.360;2023-05-07T03:09:01;13.98;;;9.07;;
34741;SDS011;20968;42.696;23.360;2023-05-07T03:11:27;10.77;;;7.43;;
34741;SDS011;20968;42.696;23.360;2023-05-07T03:13:52;11.85;;;7.60;;
34741;SDS011;20968;42.696;23.360;2023-05-07T03:16:18;16.13;;;8.20;;
34741;SDS011;20968;42.696;23.360;2023-05-07T03:18:43;12.85;;;7.32;;
34741;SDS011;20968;42.696;23.360;2023-05-07T03:21:09;13.85;;;7.60;;
34741;SDS011;20968;42.696;23.360;2023-05-07T03:23:35;14.52;;;7.05;;
34741;SDS011;20968;42.696;23.360;2023-05-07T03:26:00;11.65;;;7.38;;
34741;SDS011;20968;42.696;23.360;2023-05-07T03:28:26;12.88;;;7.20;;
34741;SDS011;20968;42.696;23.360;2023-05-07T03:30:51;13.85;;;8.70;;
34741;SDS011;20968;42.696;23.360;2023-05-07T03:33:17;13.27;;;7.78;;
34741;SDS011;20968;42.696;23.360;2023-05-07T03:35:42;19.25;;;8.25;;
34741;SDS011;20968;42.696;23.360;2023-05-07T03:38:07;13.77;;;7.70;;
34741;SDS011;20968;42.696;23.360;2023-05-07T03:40:33;9.48;;;7.15;;
34741;SDS011;20968;42.696;23.360;2023-05-07T03:42:59;13.50;;;8.50;;
34741;SDS011;20968;42.696;23.360;2023-05-07T03:45:25;10.55;;;8.00;;
34741;SDS011;20968;42.696;23.360;2023-05-07T03:47:50;15.50;;;8.73;;
34741;SDS011;20968;42.696;23.360;2023-05-07T03:50:21;15.65;;;8.70;;
34741;SDS011;20968;42.696;23.360;2023-05-07T03:52:48;19.20;;;8.63;;
34741;SDS011;20968;42.696;23.360;2023-05-07T03:55:15;11.15;;;6.93;;
34741;SDS011;20968;42.696;23.360;2023-05-07T03:57:40;20.40;;;8.48;;
34741;SDS011;20968;42.696;23.360;2023-05-07T04:00:07;11.30;;;7.97;;
34741;SDS011;20968;42.696;23.360;2023-05-07T04:02:34;12.57;;;7.15;;
34741;SDS011;20968;42.696;23.360;2023-05-07T04:04:59;19.08;;;7.80;;
34741;SDS011;20968;42.696;23.360;2023-05-07T04:07:26;14.63;;;8.20;;
34741;SDS011;20968;42.696;23.360;2023-05-07T04:09:51;12.55;;;7.57;;
34741;SDS011;20968;42.696;23.360;2023-05-07T04:12:16;13.85;;;7.93;;
34741;SDS011;20968;42.696;23.360;2023-05-07T04:14:42;16.35;;;8.40;;
34741;SDS011;20968;42.696;23.360;2023-05-07T04:17:07;15.88;;;9.77;;
34741;SDS011;20968;42.696;23.360;2023-05-07T04:19:34;19.58;;;9.95;;
34741;SDS011;20968;42.696;23.360;2023-05-07T04:22:00;21.40;;;9.45;;
34741;SDS011;20968;42.696;23.360;2023-05-07T04:24:31;17.17;;;8.40;;
34741;SDS011;20968;42.696;23.360;2023-05-07T04:26:57;12.85;;;8.38;;
34741;SDS011;20968;42.696;23.360;2023-05-07T04:29:23;13.90;;;8.77;;
34741;SDS011;20968;42.696;23.360;2023-05-07T04:31:49;15.20;;;6.72;;
34741;SDS011;20968;42.696;23.360;2023-05-07T04:34:14;13.52;;;7.38;;
34741;SDS011;20968;42.696;23.360;2023-05-07T04:36:42;13.20;;;8.15;;
34741;SDS011;20968;42.696;23.360;2023-05-07T04:39:07;9.45;;;6.95;;
34741;SDS011;20968;42.696;23.360;2023-05-07T04:41:33;14.90;;;7.38;;
34741;SDS011;20968;42.696;23.360;2023-05-07T04:44:01;14.18;;;7.57;;
34741;SDS011;20968;42.696;23.360;2023-05-07T04:46:26;16.55;;;8.10;;
34741;SDS011;20968;42.696;23.360;2023-05-07T04:48:52;12.45;;;7.50;;
34741;SDS011;20968;42.696;23.360;2023-05-07T04:51:17;11.80;;;7.38;;
34741;SDS011;20968;42.696;23.360;2023-05-07T04:53:42;11.90;;;8.45;;
34741;SDS011;20968;42.696;23.360;2023-05-07T04:56:08;16.75;;;8.18;;
34741;SDS011;20968;42.696;23.360;2023-05-07T04:58:33;13.88;;;9.05;;
34741;SDS011;20968;42.696;23.360;2023-05-07T05:00:59;13.75;;;8.90;;
34741;SDS011;20968;42.696;23.360;2023-05-07T05:03:25;12.75;;;7.90;;
34741;SDS011;20968;42.696;23.360;2023-05-07T05:05:51;12.30;;;8.80;;
34741;SDS011;20968;42.696;23.360;2023-05-07T05:08:17;15.35;;;9.73;;
34741;SDS011;20968;42.696;23.360;2023-05-07T05:10:43;14.02;;;8.50;;
34741;SDS011;20968;42.696;23.360;2023-05-07T05:13:08;18.38;;;9.00;;
34741;SDS011;20968;42.696;23.360;2023-05-07T05:15:34;13.23;;;8.43;;
34741;SDS011;20968;42.696;23.360;2023-05-07T05:18:01;14.30;;;8.80;;
34741;SDS011;20968;42.696;23.360;2023-05-07T05:20:26;15.38;;;7.90;;
34741;SDS011;20968;42.696;23.360;2023-05-07T05:22:52;9.40;;;7.63;;
34741;SDS011;20968;42.696;23.360;2023-05-07T05:25:17;11.27;;;8.07;;
34741;SDS011;20968;42.696;23.360;2023-05-07T05:27:43;11.57;;;7.68;;
34741;SDS011;20968;42.696;23.360;2023-05-07T05:30:08;20.48;;;9.50;;
34741;SDS011;20968;42.696;23.360;2023-05-07T05:32:34;15.90;;;8.00;;
34741;SDS011;20968;42.696;23.360;2023-05-07T05:34:59;16.95;;;8.90;;
34741;SDS011;20968;42.696;23.360;2023-05-07T05:37:25;12.68;;;8.02;;
34741;SDS011;20968;42.696;23.360;2023-05-07T05:39:50;16.77;;;9.80;;
34741;SDS011;20968;42.696;23.360;2023-05-07T05:42:16;12.20;;;8.00;;
34741;SDS011;20968;42.696;23.360;2023-05-07T05:44:41;11.70;;;8.40;;
34741;SDS011;20968;42.696;23.360;2023-05-07T05:47:07;11.55;;;7.90;;
34741;SDS011;20968;42.696;23.360;2023-05-07T05:49:32;11.80;;;8.75;;
34741;SDS011;20968;42.696;23.360;2023-05-07T05:51:57;15.73;;;9.73;;
34741;SDS011;20968;42.696;23.360;2023-05-07T05:54:23;13.15;;;8.02;;
34741;SDS011;20968;42.696;23.360;2023-05-07T05:56:48;9.90;;;7.82;;
34741;SDS011;20968;42.696;23.360;2023-05-07T05:59:14;13.57;;;8.50;;
34741;SDS011;20968;42.696;23.360;2023-05-07T06:01:40;13.50;;;7.75;;
34741;SDS011;20968;42.696;23.360;2023-05-07T06:04:05;11.75;;;8.05;;
34741;SDS011;20968;42.696;23.360;2023-05-07T06:06:31;13.05;;;8.10;;
34741;SDS011;20968;42.696;23.360;2023-05-07T06:08:57;12.55;;;7.32;;
34741;SDS011;20968;42.696;23.360;2023-05-07T06:11:22;12.00;;;9.23;;
34741;SDS011;20968;42.696;23.360;2023-05-07T06:13:48;12.98;;;8.48;;
34741;SDS011;20968;42.696;23.360;2023-05-07T06:16:13;11.68;;;7.90;;
34741;SDS011;20968;42.696;23.360;2023-05-07T06:18:40;12.07;;;7.65;;
34741;SDS011;20968;42.696;23.360;2023-05-07T06:21:06;16.40;;;8.90;;
34741;SDS011;20968;42.696;23.360;2023-05-07T06:23:31;11.35;;;8.10;;
34741;SDS011;20968;42.696;23.360;2023-05-07T06:25:56;13.93;;;8.43;;
34741;SDS011;20968;42.696;23.360;2023-05-07T06:28:22;13.18;;;8.95;;
34741;SDS011;20968;42.696;23.360;2023-05-07T06:30:47;13.73;;;8.60;;
34741;SDS011;20968;42.696;23.360;2023-05-07T06:33:15;15.00;;;8.32;;
34741;SDS011;20968;42.696;23.360;2023-05-07T06:35:40;16.15;;;9.38;;
34741;SDS011;20968;42.696;23.360;2023-05-07T06:38:07;14.10;;;8.90;;
34741;SDS011;20968;42.696;23.360;2023-05-07T06:40:33;11.60;;;8.43;;
34741;SDS011;20968;42.696;23.360;2023-05-07T06:42:59;13.02;;;8.23;;
34741;SDS011;20968;42.696;23.360;2023-05-07T06:45:25;9.82;;;7.97;;
34741;SDS011;20968;42.696;23.360;2023-05-07T06:47:50;16.75;;;8.23;;
34741;SDS011;20968;42.696;23.360;2023-05-07T06:50:16;12.93;;;8.48;;
34741;SDS011;20968;42.696;23.360;2023-05-07T06:52:42;13.20;;;7.63;;
34741;SDS011;20968;42.696;23.360;2023-05-07T06:55:08;14.18;;;8.50;;
34741;SDS011;20968;42.696;23.360;2023-05-07T06:57:37;13.05;;;8.57;;
34741;SDS011;20968;42.696;23.360;2023-05-07T07:00:03;14.38;;;9.50;;
34741;SDS011;20968;42.696;23.360;2023-05-07T07:02:32;19.30;;;7.72;;
34741;SDS011;20968;42.696;23.360;2023-05-07T07:04:57;13.68;;;8.45;;
34741;SDS011;20968;42.696;23.360;2023-05-07T07:07:22;16.52;;;9.02;;
34741;SDS011;20968;42.696;23.360;2023-05-07T07:09:49;11.43;;;8.05;;
34741;SDS011;20968;42.696;23.360;2023-05-07T07:12:14;16.35;;;8.20;;
34741;SDS011;20968;42.696;23.360;2023-05-07T07:14:51;15.90;;;8.35;;
34741;SDS011;20968;42.696;23.360;2023-05-07T07:17:20;10.77;;;6.30;;
34741;SDS011;20968;42.696;23.360;2023-05-07T07:19:45;7.45;;;5.38;;
34741;SDS011;20968;42.696;23.360;2023-05-07T07:22:11;10.30;;;5.55;;
34741;SDS011;20968;42.696;23.360;2023-05-07T07:24:36;9.05;;;6.70;;
34741;SDS011;20968;42.696;23.360;2023-05-07T07:27:02;8.70;;;6.57;;
34741;SDS011;20968;42.696;23.360;2023-05-07T07:29:27;12.75;;;7.93;;
34741;SDS011;20968;42.696;23.360;2023-05-07T07:31:53;11.40;;;6.57;;
34741;SDS011;20968;42.696;23.360;2023-05-07T07:34:18;10.88;;;5.85;;
34741;SDS011;20968;42.696;23.360;2023-05-07T07:36:43;8.27;;;5.35;;
34741;SDS011;20968;42.696;23.360;2023-05-07T07:39:09;11.80;;;7.43;;
34741;SDS011;20968;42.696;23.360;2023-05-07T07:41:34;8.32;;;6.60;;
34741;SDS011;20968;42.696;23.360;2023-05-07T07:44:00;8.70;;;6.57;;
34741;SDS011;20968;42.696;23.360;2023-05-07T07:46:25;10.23;;;6.25;;
34741;SDS011;20968;42.696;23.360;2023-05-07T07:48:51;11.23;;;6.90;;
34741;SDS011;20968;42.696;23.360;2023-05-07T07:51:17;19.75;;;6.18;;
34741;SDS011;20968;42.696;23.360;2023-05-07T07:53:42;21.77;;;6.65;;
34741;SDS011;20968;42.696;23.360;2023-05-07T07:56:08;14.65;;;7.43;;
34741;SDS011;20968;42.696;23.360;2023-05-07T07:58:33;28.52;;;6.97;;
34741;SDS011;20968;42.696;23.360;2023-05-07T08:01:00;10.38;;;5.22;;
34741;SDS011;20968;42.696;23.360;2023-05-07T08:03:26;10.15;;;6.13;;
34741;SDS011;20968;42.696;23.360;2023-05-07T08:05:52;8.20;;;5.97;;
34741;SDS011;20968;42.696;23.360;2023-05-07T08:08:18;6.00;;;4.50;;
34741;SDS011;20968;42.696;23.360;2023-05-07T08:10:43;11.88;;;6.32;;
34741;SDS011;20968;42.696;23.360;2023-05-07T08:13:12;9.38;;;5.95;;
34741;SDS011;20968;42.696;23.360;2023-05-07T08:15:38;11.48;;;6.35;;
34741;SDS011;20968;42.696;23.360;2023-05-07T08:18:05;11.73;;;6.63;;
34741;SDS011;20968;42.696;23.360;2023-05-07T08:20:33;9.02;;;6.07;;
34741;SDS011;20968;42.696;23.360;2023-05-07T08:23:14;12.05;;;6.50;;
34741;SDS011;20968;42.696;23.360;2023-05-07T08:25:41;12.93;;;6.25;;
34741;SDS011;20968;42.696;23.360;2023-05-07T08:28:10;8.70;;;5.75;;
34741;SDS011;20968;42.696;23.360;2023-05-07T08:33:26;11.98;;;6.38;;
34741;SDS011;20968;42.696;23.360;2023-05-07T08:35:57;7.10;;;5.28;;
34741;SDS011;20968;42.696;23.360;2023-05-07T08:38:43;8.80;;;5.95;;
34741;SDS011;20968;42.696;23.360;2023-05-07T08:41:13;7.65;;;5.43;;
34741;SDS011;20968;42.696;23.360;2023-05-07T08:43:46;9.88;;;5.43;;
34741;SDS011;20968;42.696;23.360;2023-05-07T08:46:21;9.27;;;6.25;;
34741;SDS011;20968;42.696;23.360;2023-05-07T08:48:48;9.85;;;5.57;;
34741;SDS011;20968;42.696;23.360;2023-05-07T08:51:20;8.10;;;4.20;;
34741;SDS011;20968;42.696;23.360;2023-05-07T08:53:47;7.85;;;4.20;;
34741;SDS011;20968;42.696;23.360;2023-05-07T08:56:15;7.72;;;4.38;;
34741;SDS011;20968;42.696;23.360;2023-05-07T08:58:44;5.00;;;4.07;;
34741;SDS011;20968;42.696;23.360;2023-05-07T09:01:14;9.32;;;4.72;;
34741;SDS011;20968;42.696;23.360;2023-05-07T09:03:41;5.38;;;4.07;;
34741;SDS011;20968;42.696;23.360;2023-05-07T09:06:09;7.20;;;3.83;;
34741;SDS011;20968;42.696;23.360;2023-05-07T09:08:35;6.60;;;3.15;;
34741;SDS011;20968;42.696;23.360;2023-05-07T09:11:01;4.15;;;3.13;;
34741;SDS011;20968;42.696;23.360;2023-05-07T09:13:29;8.05;;;3.13;;
34741;SDS011;20968;42.696;23.360;2023-05-07T09:16:13;3.63;;;3.08;;
34741;SDS011;20968;42.696;23.360;2023-05-07T09:19:00;6.75;;;3.30;;
34741;SDS011;20968;42.696;23.360;2023-05-07T09:21:41;9.65;;;3.55;;
34741;SDS011;20968;42.696;23.360;2023-05-07T09:24:06;6.87;;;3.10;;
34741;SDS011;20968;42.696;23.360;2023-05-07T09:26:32;7.47;;;3.70;;
34741;SDS011;20968;42.696;23.360;2023-05-07T09:28:59;4.32;;;3.17;;
34741;SDS011;20968;42.696;23.360;2023-05-07T09:31:25;5.82;;;3.50;;
34741;SDS011;20968;42.696;23.360;2023-05-07T09:33:52;5.80;;;3.28;;
34741;SDS011;20968;42.696;23.360;2023-05-07T09:39:48;4.75;;;3.40;;
34741;SDS011;20968;42.696;23.360;2023-05-07T09:42:14;6.63;;;2.83;;
34741;SDS011;20968;42.696;23.360;2023-05-07T09:44:54;4.68;;;2.53;;
34741;SDS011;20968;42.696;23.360;2023-05-07T09:47:25;5.28;;;2.42;;
34741;SDS011;20968;42.696;23.360;2023-05-07T09:53:18;7.63;;;2.88;;
34741;SDS011;20968;42.696;23.360;2023-05-07T09:55:45;4.93;;;3.25;;
34741;SDS011;20968;42.696;23.360;2023-05-07T09:58:11;7.50;;;2.80;;
34741;SDS011;20968;42.696;23.360;2023-05-07T10:00:37;3.92;;;2.22;;
34741;SDS011;20968;42.696;23.360;2023-05-07T10:03:06;3.03;;;2.42;;
34741;SDS011;20968;42.696;23.360;2023-05-07T10:05:34;3.25;;;2.85;;
34741;SDS011;20968;42.696;23.360;2023-05-07T10:08:01;4.15;;;2.55;;
34741;SDS011;20968;42.696;23.360;2023-05-07T10:10:27;4.45;;;2.95;;
34741;SDS011;20968;42.696;23.360;2023-05-07T10:12:52;4.05;;;2.47;;
34741;SDS011;20968;42.696;23.360;2023-05-07T10:15:19;8.00;;;2.63;;
34741;SDS011;20968;42.696;23.360;2023-05-07T10:17:44;3.35;;;2.22;;
34741;SDS011;20968;42.696;23.360;2023-05-07T10:20:10;3.10;;;2.15;;
34741;SDS011;20968;42.696;23.360;2023-05-07T10:22:43;2.15;;;1.70;;
34741;SDS011;20968;42.696;23.360;2023-05-07T10:25:18;3.85;;;2.40;;
34741;SDS011;20968;42.696;23.360;2023-05-07T10:27:46;2.95;;;2.47;;
34741;SDS011;20968;42.696;23.360;2023-05-07T10:30:51;3.35;;;2.60;;
34741;SDS011;20968;42.696;23.360;2023-05-07T10:33:10;4.07;;;2.63;;
34741;SDS011;20968;42.696;23.360;2023-05-07T10:35:40;3.40;;;2.38;;
34741;SDS011;20968;42.696;23.360;2023-05-07T10:38:08;4.85;;;2.38;;
34741;SDS011;20968;42.696;23.360;2023-05-07T10:40:34;3.72;;;2.60;;
34741;SDS011;20968;42.696;23.360;2023-05-07T10:43:00;2.55;;;2.03;;
34741;SDS011;20968;42.696;23.360;2023-05-07T10:45:28;3.78;;;3.15;;
34741;SDS011;20968;42.696;23.360;2023-05-07T10:48:07;2.85;;;1.80;;
34741;SDS011;20968;42.696;23.360;2023-05-07T10:50:36;5.07;;;2.30;;
34741;SDS011;20968;42.696;23.360;2023-05-07T10:55:50;2.78;;;2.40;;
34741;SDS011;20968;42.696;23.360;2023-05-07T10:58:27;2.80;;;2.33;;
34741;SDS011;20968;42.696;23.360;2023-05-07T11:00:57;2.38;;;2.17;;
34741;SDS011;20968;42.696;23.360;2023-05-07T11:03:24;2.20;;;2.03;;
34741;SDS011;20968;42.696;23.360;2023-05-07T11:11:16;2.70;;;2.50;;
34741;SDS011;20968;42.696;23.360;2023-05-07T11:13:46;2.65;;;2.25;;
34741;SDS011;20968;42.696;23.360;2023-05-07T11:16:19;6.13;;;2.20;;
34741;SDS011;20968;42.696;23.360;2023-05-07T11:18:47;2.72;;;2.42;;
34741;SDS011;20968;42.696;23.360;2023-05-07T11:24:05;2.08;;;1.50;;
34741;SDS011;20968;42.696;23.360;2023-05-07T11:26:44;2.58;;;2.03;;
34741;SDS011;20968;42.696;23.360;2023-05-07T11:29:12;3.65;;;2.42;;
34741;SDS011;20968;42.696;23.360;2023-05-07T11:31:39;4.78;;;1.55;;
34741;SDS011;20968;42.696;23.360;2023-05-07T11:34:05;2.70;;;1.60;;
34741;SDS011;20968;42.696;23.360;2023-05-07T11:36:32;2.97;;;2.00;;
34741;SDS011;20968;42.696;23.360;2023-05-07T11:38:58;3.03;;;1.90;;
34741;SDS011;20968;42.696;23.360;2023-05-07T11:41:33;6.18;;;2.83;;
34741;SDS011;20968;42.696;23.360;2023-05-07T11:44:02;1.80;;;1.70;;
34741;SDS011;20968;42.696;23.360;2023-05-07T11:46:27;7.00;;;2.25;;
34741;SDS011;20968;42.696;23.360;2023-05-07T11:48:54;2.35;;;2.15;;
34741;SDS011;20968;42.696;23.360;2023-05-07T11:51:20;2.22;;;1.70;;
34741;SDS011;20968;42.696;23.360;2023-05-07T11:53:47;4.38;;;1.95;;
34741;SDS011;20968;42.696;23.360;2023-05-07T11:56:14;2.00;;;1.80;;
34741;SDS011;20968;42.696;23.360;2023-05-07T11:58:41;1.40;;;1.30;;
34741;SDS011;20968;42.696;23.360;2023-05-07T12:01:09;2.58;;;2.03;;
34741;SDS011;20968;42.696;23.360;2023-05-07T12:03:36;4.95;;;1.60;;
34741;SDS011;20968;42.696;23.360;2023-05-07T12:06:06;4.30;;;2.08;;
34741;SDS011;20968;42.696;23.360;2023-05-07T12:08:32;3.88;;;1.73;;
34741;SDS011;20968;42.696;23.360;2023-05-07T12:10:57;1.77;;;1.67;;
34741;SDS011;20968;42.696;23.360;2023-05-07T12:13:24;4.05;;;2.17;;
34741;SDS011;20968;42.696;23.360;2023-05-07T12:15:51;3.47;;;2.25;;
34741;SDS011;20968;42.696;23.360;2023-05-07T12:18:23;2.92;;;2.08;;
34741;SDS011;20968;42.696;23.360;2023-05-07T12:20:49;1.95;;;1.75;;
34741;SDS011;20968;42.696;23.360;2023-05-07T12:23:15;1.77;;;1.67;;
34741;SDS011;20968;42.696;23.360;2023-05-07T12:25:42;2.85;;;1.80;;
34741;SDS011;20968;42.696;23.360;2023-05-07T12:28:18;1.48;;;1.38;;
34741;SDS011;20968;42.696;23.360;2023-05-07T12:30:45;1.90;;;1.50;;
34741;SDS011;20968;42.696;23.360;2023-05-07T12:33:15;2.78;;;1.85;;
34741;SDS011;20968;42.696;23.360;2023-05-07T12:35:42;2.03;;;1.00;;
34741;SDS011;20968;42.696;23.360;2023-05-07T12:38:08;1.50;;;1.40;;
34741;SDS011;20968;42.696;23.360;2023-05-07T12:40:42;3.28;;;1.60;;
34741;SDS011;20968;42.696;23.360;2023-05-07T12:43:20;1.48;;;1.38;;
34741;SDS011;20968;42.696;23.360;2023-05-07T12:45:49;3.90;;;1.40;;
34741;SDS011;20968;42.696;23.360;2023-05-07T12:48:15;1.95;;;1.42;;
34741;SDS011;20968;42.696;23.360;2023-05-07T12:50:41;3.08;;;2.35;;
34741;SDS011;20968;42.696;23.360;2023-05-07T12:53:08;3.10;;;1.35;;
34741;SDS011;20968;42.696;23.360;2023-05-07T12:55:46;1.77;;;1.55;;
34741;SDS011;20968;42.696;23.360;2023-05-07T12:58:30;2.42;;;1.30;;
34741;SDS011;20968;42.696;23.360;2023-05-07T13:01:33;0.90;;;0.77;;
34741;SDS011;20968;42.696;23.360;2023-05-07T13:04:02;2.42;;;1.90;;
34741;SDS011;20968;42.696;23.360;2023-05-07T13:06:29;2.08;;;1.40;;
34741;SDS011;20968;42.696;23.360;2023-05-07T13:08:56;2.03;;;1.67;;
34741;SDS011;20968;42.696;23.360;2023-05-07T13:11:21;2.25;;;1.13;;
34741;SDS011;20968;42.696;23.360;2023-05-07T13:13:47;1.25;;;1.15;;
34741;SDS011;20968;42.696;23.360;2023-05-07T13:16:13;11.02;;;1.77;;
34741;SDS011;20968;42.696;23.360;2023-05-07T13:18:39;2.28;;;1.92;;
34741;SDS011;20968;42.696;23.360;2023-05-07T13:21:05;3.92;;;1.40;;
34741;SDS011;20968;42.696;23.360;2023-05-07T13:23:30;4.70;;;1.70;;
34741;SDS011;20968;42.696;23.360;2023-05-07T13:25:56;5.57;;;1.63;;
34741;SDS011;20968;42.696;23.360;2023-05-07T13:28:22;1.13;;;1.02;;
34741;SDS011;20968;42.696;23.360;2023-05-07T13:30:48;2.47;;;1.88;;
34741;SDS011;20968;42.696;23.360;2023-05-07T13:33:14;2.22;;;1.23;;
34741;SDS011;20968;42.696;23.360;2023-05-07T13:35:41;2.30;;;1.63;;
34741;SDS011;20968;42.696;23.360;2023-05-07T13:38:06;1.58;;;1.20;;
34741;SDS011;20968;42.696;23.360;2023-05-07T13:40:32;8.55;;;1.48;;
34741;SDS011;20968;42.696;23.360;2023-05-07T13:42:57;1.98;;;1.38;;
34741;SDS011;20968;42.696;23.360;2023-05-07T13:45:24;1.60;;;1.45;;
34741;SDS011;20968;42.696;23.360;2023-05-07T13:47:51;1.95;;;1.42;;
34741;SDS011;20968;42.696;23.360;2023-05-07T13:50:16;2.42;;;1.45;;
34741;SDS011;20968;42.696;23.360;2023-05-07T13:52:42;4.15;;;1.92;;
34741;SDS011;20968;42.696;23.360;2023-05-07T13:55:15;2.92;;;1.73;;
34741;SDS011;20968;42.696;23.360;2023-05-07T13:57:43;2.47;;;1.63;;
34741;SDS011;20968;42.696;23.360;2023-05-07T14:00:10;2.13;;;1.70;;
34741;SDS011;20968;42.696;23.360;2023-05-07T14:02:36;4.72;;;1.42;;
34741;SDS011;20968;42.696;23.360;2023-05-07T14:05:02;5.28;;;1.50;;
34741;SDS011;20968;42.696;23.360;2023-05-07T14:07:27;3.38;;;1.65;;
34741;SDS011;20968;42.696;23.360;2023-05-07T14:09:53;1.65;;;1.40;;
34741;SDS011;20968;42.696;23.360;2023-05-07T14:12:19;3.25;;;1.60;;
34741;SDS011;20968;42.696;23.360;2023-05-07T14:14:45;3.85;;;1.88;;
34741;SDS011;20968;42.696;23.360;2023-05-07T14:17:11;1.50;;;1.25;;
34741;SDS011;20968;42.696;23.360;2023-05-07T14:19:37;1.67;;;1.52;;
34741;SDS011;20968;42.696;23.360;2023-05-07T14:22:02;1.77;;;1.42;;
34741;SDS011;20968;42.696;23.360;2023-05-07T14:24:28;1.70;;;1.52;;
34741;SDS011;20968;42.696;23.360;2023-05-07T14:26:53;3.78;;;1.65;;
34741;SDS011;20968;42.696;23.360;2023-05-07T14:29:19;2.22;;;1.50;;
34741;SDS011;20968;42.696;23.360;2023-05-07T14:31:44;3.47;;;1.52;;
34741;SDS011;20968;42.696;23.360;2023-05-07T14:34:10;4.03;;;1.50;;
34741;SDS011;20968;42.696;23.360;2023-05-07T14:36:36;2.47;;;1.70;;
34741;SDS011;20968;42.696;23.360;2023-05-07T14:39:03;2.50;;;1.70;;
34741;SDS011;20968;42.696;23.360;2023-05-07T14:41:29;1.60;;;1.50;;
34741;SDS011;20968;42.696;23.360;2023-05-07T14:43:54;1.60;;;1.42;;
34741;SDS011;20968;42.696;23.360;2023-05-07T14:46:20;1.58;;;1.30;;
34741;SDS011;20968;42.696;23.360;2023-05-07T14:48:45;3.10;;;1.67;;